sensor_id;sensor_type;location;lat;lon;timestamp;pressure;altitude;pressure_sealevel;temperature;humidity
10992;BME280;5549;47.028;15.514;2022-10-16T00:01:43;96871.44;;;13.68;81.67
10992;BME280;5549;47.028;15.514;2022-10-16T00:04:13;96863.69;;;13.66;81.58
10992;BME280;5549;47.028;15.514;2022-10-16T00:06:43;96853.69;;;13.60;81.79
10992;BME280;5549;47.028;15.514;2022-10-16T00:09:11;96847.31;;;13.53;81.92
10992;BME280;5549;47.028;15.514;2022-10-16T00:11:42;96856.06;;;13.44;81.88
10992;BME280;5549;47.028;15.514;2022-10-16T00:14:12;96859.94;;;13.40;82.19
10992;BME280;5549;47.028;15.514;2022-10-16T00:16:44;96857.59;;;13.37;81.88
10992;BME280;5549;47.028;15.514;2022-10-16T00:19:12;96859.25;;;13.38;81.78
10992;BME280;5549;47.028;15.514;2022-10-16T00:21:40;96853.28;;;13.36;82.36
10992;BME280;5549;47.028;15.514;2022-10-16T00:24:10;96848.00;;;13.36;82.10
10992;BME280;5549;47.028;15.514;2022-10-16T00:26:40;96848.84;;;13.36;82.08
10992;BME280;5549;47.028;15.514;2022-10-16T00:29:10;96857.31;;;13.40;81.84
10992;BME280;5549;47.028;15.514;2022-10-16T00:31:38;96865.91;;;13.42;81.81
10992;BME280;5549;47.028;15.514;2022-10-16T00:34:09;96864.25;;;13.41;82.12
10992;BME280;5549;47.028;15.514;2022-10-16T00:36:37;96871.19;;;13.42;82.27
10992;BME280;5549;47.028;15.514;2022-10-16T00:39:07;96871.88;;;13.44;81.98
10992;BME280;5549;47.028;15.514;2022-10-16T00:41:35;96870.78;;;13.46;82.00
10992;BME280;5549;47.028;15.514;2022-10-16T00:44:42;96875.06;;;13.47;81.83
10992;BME280;5549;47.028;15.514;2022-10-16T00:47:13;96872.28;;;13.49;81.96
10992;BME280;5549;47.028;15.514;2022-10-16T00:49:44;96873.00;;;13.51;81.65
10992;BME280;5549;47.028;15.514;2022-10-16T00:52:13;96874.53;;;13.54;81.61
10992;BME280;5549;47.028;15.514;2022-10-16T00:54:41;96877.84;;;13.56;81.62
10992;BME280;5549;47.028;15.514;2022-10-16T00:57:12;96881.59;;;13.53;82.12
10992;BME280;5549;47.028;15.514;2022-10-16T00:59:40;96882.28;;;13.55;81.54
10992;BME280;5549;47.028;15.514;2022-10-16T01:02:15;96879.50;;;13.57;81.97
10992;BME280;5549;47.028;15.514;2022-10-16T01:04:56;96881.31;;;13.56;81.88
10992;BME280;5549;47.028;15.514;2022-10-16T01:07:39;96877.56;;;13.59;82.15
10992;BME280;5549;47.028;15.514;2022-10-16T01:10:20;96878.41;;;13.59;81.98
10992;BME280;5549;47.028;15.514;2022-10-16T01:12:59;96880.06;;;13.60;81.81
10992;BME280;5549;47.028;15.514;2022-10-16T01:15:32;96878.13;;;13.62;81.87
10992;BME280;5549;47.028;15.514;2022-10-16T01:18:10;96875.75;;;13.59;82.57
10992;BME280;5549;47.028;15.514;2022-10-16T01:20:47;96886.47;;;13.58;82.21
10992;BME280;5549;47.028;15.514;2022-10-16T01:23:31;96883.69;;;13.59;82.58
10992;BME280;5549;47.028;15.514;2022-10-16T01:26:24;96883.00;;;13.57;82.88
10992;BME280;5549;47.028;15.514;2022-10-16T01:29:07;96868.13;;;13.56;83.33
10992;BME280;5549;47.028;15.514;2022-10-16T01:31:40;96873.13;;;13.49;84.38
10992;BME280;5549;47.028;15.514;2022-10-16T01:34:13;96875.91;;;13.48;84.47
10992;BME280;5549;47.028;15.514;2022-10-16T01:36:49;96875.91;;;13.48;84.38
10992;BME280;5549;47.028;15.514;2022-10-16T01:39:22;96871.75;;;13.45;84.57
10992;BME280;5549;47.028;15.514;2022-10-16T01:41:59;96881.31;;;13.37;85.38
10992;BME280;5549;47.028;15.514;2022-10-16T01:44:32;96884.50;;;13.31;86.27
10992;BME280;5549;47.028;15.514;2022-10-16T01:47:02;96881.31;;;13.37;85.89
10992;BME280;5549;47.028;15.514;2022-10-16T01:49:35;96881.03;;;13.40;85.89
10992;BME280;5549;47.028;15.514;2022-10-16T01:52:12;96884.38;;;13.42;85.42
10992;BME280;5549;47.028;15.514;2022-10-16T01:54:46;96887.72;;;13.44;85.23
10992;BME280;5549;47.028;15.514;2022-10-16T01:57:16;96886.75;;;13.45;85.18
10992;BME280;5549;47.028;15.514;2022-10-16T01:59:52;96880.34;;;13.47;85.10
10992;BME280;5549;47.028;15.514;2022-10-16T02:02:27;96875.63;;;13.51;84.93
10992;BME280;5549;47.028;15.514;2022-10-16T02:05:01;96875.22;;;13.56;84.77
10992;BME280;5549;47.028;15.514;2022-10-16T02:07:34;96867.84;;;13.59;84.57
10992;BME280;5549;47.028;15.514;2022-10-16T02:10:06;96866.72;;;13.62;84.16
10992;BME280;5549;47.028;15.514;2022-10-16T02:12:39;96855.06;;;13.64;83.92
10992;BME280;5549;47.028;15.514;2022-10-16T02:15:12;96865.34;;;13.67;83.87
10992;BME280;5549;47.028;15.514;2022-10-16T02:17:48;96868.66;;;13.69;83.61
10992;BME280;5549;47.028;15.514;2022-10-16T02:20:25;96860.63;;;13.71;83.42
10992;BME280;5549;47.028;15.514;2022-10-16T02:22:57;96868.38;;;13.72;83.39
10992;BME280;5549;47.028;15.514;2022-10-16T02:25:31;96867.41;;;13.73;83.06
10992;BME280;5549;47.028;15.514;2022-10-16T02:28:07;96871.88;;;13.73;83.37
10992;BME280;5549;47.028;15.514;2022-10-16T02:30:43;96871.31;;;13.69;83.82
10992;BME280;5549;47.028;15.514;2022-10-16T02:33:14;96870.47;;;13.69;83.72
10992;BME280;5549;47.028;15.514;2022-10-16T02:35:44;96884.50;;;13.69;83.59
10992;BME280;5549;47.028;15.514;2022-10-16T02:38:16;96890.63;;;13.70;83.60
10992;BME280;5549;47.028;15.514;2022-10-16T02:40:47;96880.91;;;13.70;83.49
10992;BME280;5549;47.028;15.514;2022-10-16T02:43:17;96891.59;;;13.69;83.36
10992;BME280;5549;47.028;15.514;2022-10-16T02:45:47;96884.78;;;13.66;83.31
10992;BME280;5549;47.028;15.514;2022-10-16T02:48:16;96889.22;;;13.66;83.12
10992;BME280;5549;47.028;15.514;2022-10-16T02:50:46;96898.97;;;13.65;82.84
10992;BME280;5549;47.028;15.514;2022-10-16T02:53:14;96892.97;;;13.63;82.90
10992;BME280;5549;47.028;15.514;2022-10-16T02:55:41;96889.78;;;13.60;82.45
10992;BME280;5549;47.028;15.514;2022-10-16T02:58:11;96888.53;;;13.54;82.24
10992;BME280;5549;47.028;15.514;2022-10-16T03:00:39;96890.75;;;13.49;82.31
10992;BME280;5549;47.028;15.514;2022-10-16T03:03:10;96895.22;;;13.48;82.45
10992;BME280;5549;47.028;15.514;2022-10-16T03:05:40;96896.88;;;13.49;82.30
10992;BME280;5549;47.028;15.514;2022-10-16T03:08:09;96902.00;;;13.51;81.88
10992;BME280;5549;47.028;15.514;2022-10-16T03:10:39;96906.31;;;13.52;82.18
10992;BME280;5549;47.028;15.514;2022-10-16T03:13:09;96906.31;;;13.52;81.99
10992;BME280;5549;47.028;15.514;2022-10-16T03:15:39;96907.16;;;13.53;82.02
10992;BME280;5549;47.028;15.514;2022-10-16T03:18:06;96908.97;;;13.52;81.90
10992;BME280;5549;47.028;15.514;2022-10-16T03:20:35;96908.97;;;13.52;81.90
10992;BME280;5549;47.028;15.514;2022-10-16T03:23:03;96898.69;;;13.49;81.82
10992;BME280;5549;47.028;15.514;2022-10-16T03:25:31;96895.63;;;13.44;81.76
10992;BME280;5549;47.028;15.514;2022-10-16T03:27:58;96898.41;;;13.33;81.66
10992;BME280;5549;47.028;15.514;2022-10-16T03:30:26;96892.00;;;13.26;81.78
10992;BME280;5549;47.028;15.514;2022-10-16T03:32:53;96899.22;;;13.24;81.66
10992;BME280;5549;47.028;15.514;2022-10-16T03:35:21;96900.31;;;13.21;81.57
10992;BME280;5549;47.028;15.514;2022-10-16T03:37:51;96898.09;;;13.16;81.29
10992;BME280;5549;47.028;15.514;2022-10-16T03:40:19;96886.97;;;13.13;81.34
10992;BME280;5549;47.028;15.514;2022-10-16T03:42:46;96889.03;;;13.09;81.94
10992;BME280;5549;47.028;15.514;2022-10-16T03:45:16;96894.16;;;13.11;81.64
10992;BME280;5549;47.028;15.514;2022-10-16T03:47:46;96898.75;;;13.09;82.28
10992;BME280;5549;47.028;15.514;2022-10-16T03:50:15;96902.50;;;13.06;82.04
10992;BME280;5549;47.028;15.514;2022-10-16T03:52:42;96906.09;;;13.05;82.06
10992;BME280;5549;47.028;15.514;2022-10-16T03:55:11;96911.38;;;13.05;82.08
10992;BME280;5549;47.028;15.514;2022-10-16T03:57:41;96917.47;;;13.06;81.88
10992;BME280;5549;47.028;15.514;2022-10-16T04:00:11;96926.50;;;13.03;82.33
10992;BME280;5549;47.028;15.514;2022-10-16T04:02:39;96924.41;;;12.97;82.84
10992;BME280;5549;47.028;15.514;2022-10-16T04:05:09;96930.06;;;12.93;83.08
10992;BME280;5549;47.028;15.514;2022-10-16T04:07:39;96926.59;;;12.92;83.24
10992;BME280;5549;47.028;15.514;2022-10-16T04:10:08;96929.94;;;12.94;82.91
10992;BME280;5549;47.028;15.514;2022-10-16T04:12:39;96926.19;;;12.97;82.96
10992;BME280;5549;47.028;15.514;2022-10-16T04:15:08;96920.78;;;12.98;82.67
10992;BME280;5549;47.028;15.514;2022-10-16T04:17:36;96924.97;;;13.01;82.72
10992;BME280;5549;47.028;15.514;2022-10-16T04:20:05;96919.41;;;13.04;82.31
10992;BME280;5549;47.028;15.514;2022-10-16T04:22:35;96917.47;;;13.06;82.24
10992;BME280;5549;47.028;15.514;2022-10-16T04:25:03;96924.28;;;13.08;82.39
10992;BME280;5549;47.028;15.514;2022-10-16T04:27:31;96923.44;;;13.08;82.26
10992;BME280;5549;47.028;15.514;2022-10-16T04:30:02;96924.28;;;13.08;82.36
10992;BME280;5549;47.028;15.514;2022-10-16T04:32:30;96932.19;;;13.08;82.19
10992;BME280;5549;47.028;15.514;2022-10-16T04:34:58;96927.75;;;13.09;82.27
10992;BME280;5549;47.028;15.514;2022-10-16T04:37:26;96924.97;;;13.10;82.25
10992;BME280;5549;47.028;15.514;2022-10-16T04:39:56;96930.13;;;13.12;82.49
10992;BME280;5549;47.028;15.514;2022-10-16T04:42:23;96930.81;;;13.14;82.48
10992;BME280;5549;47.028;15.514;2022-10-16T04:44:51;96936.94;;;13.14;82.46
10992;BME280;5549;47.028;15.514;2022-10-16T04:47:23;96935.97;;;13.15;82.82
10992;BME280;5549;47.028;15.514;2022-10-16T04:49:53;96935.84;;;13.17;82.85
10992;BME280;5549;47.028;15.514;2022-10-16T04:52:23;96940.03;;;13.20;83.13
10992;BME280;5549;47.028;15.514;2022-10-16T04:54:52;96938.09;;;13.22;83.29
10992;BME280;5549;47.028;15.514;2022-10-16T04:57:22;96947.78;;;13.21;83.32
10992;BME280;5549;47.028;15.514;2022-10-16T04:59:50;96950.56;;;13.20;83.15
10992;BME280;5549;47.028;15.514;2022-10-16T05:02:17;96952.38;;;13.19;83.19
10992;BME280;5549;47.028;15.514;2022-10-16T05:04:48;96954.31;;;13.17;83.58
10992;BME280;5549;47.028;15.514;2022-10-16T05:07:16;96959.69;;;13.15;83.68
10992;BME280;5549;47.028;15.514;2022-10-16T05:09:44;96959.69;;;13.15;83.76
10992;BME280;5549;47.028;15.514;2022-10-16T05:12:11;96956.81;;;13.19;83.67
10992;BME280;5549;47.028;15.514;2022-10-16T05:14:39;96968.91;;;13.21;83.76
10992;BME280;5549;47.028;15.514;2022-10-16T05:17:06;96960.84;;;13.23;83.50
10992;BME280;5549;47.028;15.514;2022-10-16T05:19:36;96965.84;;;13.26;83.45
10992;BME280;5549;47.028;15.514;2022-10-16T05:22:07;96971.00;;;13.27;83.27
10992;BME280;5549;47.028;15.514;2022-10-16T05:24:35;96968.22;;;13.29;83.33
10992;BME280;5549;47.028;15.514;2022-10-16T05:27:05;96969.88;;;13.30;83.36
10992;BME280;5549;47.028;15.514;2022-10-16T05:29:33;96981.41;;;13.29;83.29
10992;BME280;5549;47.028;15.514;2022-10-16T05:32:02;96975.28;;;13.28;83.16
10992;BME280;5549;47.028;15.514;2022-10-16T05:34:32;96984.88;;;13.29;83.13
10992;BME280;5549;47.028;15.514;2022-10-16T05:37:00;96982.38;;;13.28;83.17
10992;BME280;5549;47.028;15.514;2022-10-16T05:39:29;96983.22;;;13.28;82.91
10992;BME280;5549;47.028;15.514;2022-10-16T05:41:59;96984.75;;;13.31;82.85
10992;BME280;5549;47.028;15.514;2022-10-16T05:44:29;96995.03;;;13.34;82.69
10992;BME280;5549;47.028;15.514;2022-10-16T05:46:56;96992.25;;;13.35;82.78
10992;BME280;5549;47.028;15.514;2022-10-16T05:49:24;96995.59;;;13.37;82.47
10992;BME280;5549;47.028;15.514;2022-10-16T05:51:55;96989.47;;;13.37;82.50
10992;BME280;5549;47.028;15.514;2022-10-16T05:54:23;96989.75;;;13.34;82.33
10992;BME280;5549;47.028;15.514;2022-10-16T05:56:54;96985.31;;;13.34;81.97
10992;BME280;5549;47.028;15.514;2022-10-16T05:59:22;96988.34;;;13.30;81.80
10992;BME280;5549;47.028;15.514;2022-10-16T06:01:49;96991.13;;;13.28;81.69
10992;BME280;5549;47.028;15.514;2022-10-16T06:04:19;97002.09;;;13.33;81.87
10992;BME280;5549;47.028;15.514;2022-10-16T06:06:49;97015.84;;;13.37;81.86
10992;BME280;5549;47.028;15.514;2022-10-16T06:09:17;97023.50;;;13.40;82.07
10992;BME280;5549;47.028;15.514;2022-10-16T06:11:44;97018.38;;;13.48;82.42
10992;BME280;5549;47.028;15.514;2022-10-16T06:14:13;97019.53;;;13.84;86.12
10992;BME280;5549;47.028;15.514;2022-10-16T06:16:43;97020.13;;;14.17;88.54
10992;BME280;5549;47.028;15.514;2022-10-16T06:19:10;97032.22;;;14.38;88.44
10992;BME280;5549;47.028;15.514;2022-10-16T06:21:40;97031.78;;;14.62;88.46
10992;BME280;5549;47.028;15.514;2022-10-16T06:24:09;97039.25;;;14.86;87.74
10992;BME280;5549;47.028;15.514;2022-10-16T06:26:39;97045.84;;;15.09;85.93
10992;BME280;5549;47.028;15.514;2022-10-16T06:29:08;97039.06;;;15.34;84.51
10992;BME280;5549;47.028;15.514;2022-10-16T06:31:37;97037.28;;;15.62;82.55
10992;BME280;5549;47.028;15.514;2022-10-16T06:34:08;97050.19;;;15.93;80.40
10992;BME280;5549;47.028;15.514;2022-10-16T06:36:40;97043.38;;;16.26;79.30
10992;BME280;5549;47.028;15.514;2022-10-16T06:39:11;97043.28;;;16.53;78.10
10992;BME280;5549;47.028;15.514;2022-10-16T06:41:41;97049.97;;;16.83;76.62
10992;BME280;5549;47.028;15.514;2022-10-16T06:44:09;97051.00;;;17.16;75.17
10992;BME280;5549;47.028;15.514;2022-10-16T06:46:38;97052.03;;;17.49;73.54
10992;BME280;5549;47.028;15.514;2022-10-16T06:49:08;97053.19;;;17.89;71.62
10992;BME280;5549;47.028;15.514;2022-10-16T06:51:38;97059.56;;;18.28;70.12
10992;BME280;5549;47.028;15.514;2022-10-16T06:54:07;97064.59;;;18.64;68.58
10992;BME280;5549;47.028;15.514;2022-10-16T06:56:35;97059.91;;;18.99;66.81
10992;BME280;5549;47.028;15.514;2022-10-16T06:59:04;97067.84;;;19.23;65.31
10992;BME280;5549;47.028;15.514;2022-10-16T07:01:32;97072.44;;;19.45;63.94
10992;BME280;5549;47.028;15.514;2022-10-16T07:04:04;97068.09;;;19.61;62.35
10992;BME280;5549;47.028;15.514;2022-10-16T07:06:33;97068.03;;;19.77;62.87
10992;BME280;5549;47.028;15.514;2022-10-16T07:09:06;97075.94;;;19.93;62.18
10992;BME280;5549;47.028;15.514;2022-10-16T07:11:36;97070.50;;;20.09;61.56
10992;BME280;5549;47.028;15.514;2022-10-16T07:14:15;97065.38;;;20.31;61.01
10992;BME280;5549;47.028;15.514;2022-10-16T07:16:43;97063.44;;;20.47;60.86
10992;BME280;5549;47.028;15.514;2022-10-16T07:19:13;97061.47;;;20.64;60.03
10992;BME280;5549;47.028;15.514;2022-10-16T07:21:43;97061.84;;;20.84;59.96
10992;BME280;5549;47.028;15.514;2022-10-16T07:24:15;97056.50;;;20.84;58.42
10992;BME280;5549;47.028;15.514;2022-10-16T07:26:45;97061.78;;;20.69;59.35
10992;BME280;5549;47.028;15.514;2022-10-16T07:29:18;97071.22;;;20.57;58.67
10992;BME280;5549;47.028;15.514;2022-10-16T07:31:49;97078.91;;;20.52;58.71
10992;BME280;5549;47.028;15.514;2022-10-16T07:34:21;97076.59;;;20.49;59.52
10992;BME280;5549;47.028;15.514;2022-10-16T07:36:57;97079.63;;;20.46;58.66
10992;BME280;5549;47.028;15.514;2022-10-16T07:39:27;97080.34;;;20.40;58.75
10992;BME280;5549;47.028;15.514;2022-10-16T07:41:57;97096.34;;;20.40;58.50
10992;BME280;5549;47.028;15.514;2022-10-16T07:44:27;97092.16;;;20.45;58.71
10992;BME280;5549;47.028;15.514;2022-10-16T07:46:57;97081.72;;;20.59;59.46
10992;BME280;5549;47.028;15.514;2022-10-16T07:49:28;97091.13;;;20.69;58.49
10992;BME280;5549;47.028;15.514;2022-10-16T07:51:58;97089.72;;;20.81;58.20
10992;BME280;5549;47.028;15.514;2022-10-16T07:54:26;97091.97;;;20.93;58.58
10992;BME280;5549;47.028;15.514;2022-10-16T07:56:55;97079.84;;;21.05;58.11
10992;BME280;5549;47.028;15.514;2022-10-16T07:59:26;97075.41;;;21.12;57.38
10992;BME280;5549;47.028;15.514;2022-10-16T08:01:53;97083.16;;;21.07;57.12
10992;BME280;5549;47.028;15.514;2022-10-16T08:04:21;97082.78;;;21.10;57.25
10992;BME280;5549;47.028;15.514;2022-10-16T08:06:52;97084.09;;;21.14;58.12
10992;BME280;5549;47.028;15.514;2022-10-16T08:09:20;97094.41;;;21.17;58.11
10992;BME280;5549;47.028;15.514;2022-10-16T08:11:48;97096.53;;;21.22;59.25
10992;BME280;5549;47.028;15.514;2022-10-16T08:14:18;97087.81;;;21.28;56.53
10992;BME280;5549;47.028;15.514;2022-10-16T08:16:45;97092.97;;;21.29;58.23
10992;BME280;5549;47.028;15.514;2022-10-16T08:19:15;97094.00;;;21.43;57.77
10992;BME280;5549;47.028;15.514;2022-10-16T08:21:47;97092.88;;;21.37;56.38
10992;BME280;5549;47.028;15.514;2022-10-16T08:24:16;97102.75;;;21.37;56.83
10992;BME280;5549;47.028;15.514;2022-10-16T08:26:46;97104.66;;;21.28;57.34
10992;BME280;5549;47.028;15.514;2022-10-16T08:29:16;97098.09;;;21.16;56.10
10992;BME280;5549;47.028;15.514;2022-10-16T08:31:44;97102.59;;;21.16;57.76
10992;BME280;5549;47.028;15.514;2022-10-16T08:34:14;97105.25;;;21.01;56.94
10992;BME280;5549;47.028;15.514;2022-10-16T08:36:44;97109.03;;;21.06;57.78
10992;BME280;5549;47.028;15.514;2022-10-16T08:39:12;97113.47;;;21.14;58.56
10992;BME280;5549;47.028;15.514;2022-10-16T08:45:26;97109.06;;;21.21;57.01
10992;BME280;5549;47.028;15.514;2022-10-16T08:48:11;97120.47;;;21.15;56.95
10992;BME280;5549;47.028;15.514;2022-10-16T08:50:44;97116.28;;;20.98;56.90
10992;BME280;5549;47.028;15.514;2022-10-16T08:53:22;97110.47;;;20.94;57.13
10992;BME280;5549;47.028;15.514;2022-10-16T08:55:52;97120.59;;;20.99;57.07
10992;BME280;5549;47.028;15.514;2022-10-16T08:58:26;97120.91;;;21.04;57.28
10992;BME280;5549;47.028;15.514;2022-10-16T09:00:56;97131.78;;;21.17;57.84
10992;BME280;5549;47.028;15.514;2022-10-16T09:03:43;97130.72;;;21.26;57.95
10992;BME280;5549;47.028;15.514;2022-10-16T09:06:40;97127.91;;;21.42;57.11
10992;BME280;5549;47.028;15.514;2022-10-16T09:09:40;97131.50;;;21.50;56.40
10992;BME280;5549;47.028;15.514;2022-10-16T09:12:20;97125.41;;;21.56;56.91
10992;BME280;5549;47.028;15.514;2022-10-16T09:15:14;97130.59;;;21.72;56.57
10992;BME280;5549;47.028;15.514;2022-10-16T09:17:54;97125.88;;;21.89;56.60
10992;BME280;5549;47.028;15.514;2022-10-16T09:20:37;97120.22;;;21.98;55.33
10992;BME280;5549;47.028;15.514;2022-10-16T09:23:17;97126.16;;;21.94;55.67
10992;BME280;5549;47.028;15.514;2022-10-16T09:25:49;97126.53;;;22.05;55.70
10992;BME280;5549;47.028;15.514;2022-10-16T09:28:19;97127.97;;;22.23;55.93
10992;BME280;5549;47.028;15.514;2022-10-16T09:30:49;97122.00;;;22.42;54.42
10992;BME280;5549;47.028;15.514;2022-10-16T09:33:21;97125.97;;;22.46;53.71
10992;BME280;5549;47.028;15.514;2022-10-16T09:35:52;97128.63;;;22.46;53.27
10992;BME280;5549;47.028;15.514;2022-10-16T09:38:27;97130.94;;;22.49;53.00
10992;BME280;5549;47.028;15.514;2022-10-16T09:40:56;97142.84;;;22.47;53.62
10992;BME280;5549;47.028;15.514;2022-10-16T09:43:33;97137.94;;;22.50;53.22
10992;BME280;5549;47.028;15.514;2022-10-16T09:46:07;97132.13;;;22.61;52.81
10992;BME280;5549;47.028;15.514;2022-10-16T09:48:39;97140.34;;;22.60;52.24
10992;BME280;5549;47.028;15.514;2022-10-16T09:51:20;97141.19;;;22.46;52.28
10992;BME280;5549;47.028;15.514;2022-10-16T09:53:56;97141.84;;;22.48;53.21
10992;BME280;5549;47.028;15.514;2022-10-16T09:56:28;97140.88;;;22.70;52.55
10992;BME280;5549;47.028;15.514;2022-10-16T09:59:01;97135.22;;;22.80;52.07
10992;BME280;5549;47.028;15.514;2022-10-16T10:01:37;97133.69;;;22.92;51.54
10992;BME280;5549;47.028;15.514;2022-10-16T10:04:08;97124.09;;;23.04;51.09
10992;BME280;5549;47.028;15.514;2022-10-16T10:06:40;97128.34;;;23.20;51.91
10992;BME280;5549;47.028;15.514;2022-10-16T10:09:19;97130.41;;;23.46;51.16
10992;BME280;5549;47.028;15.514;2022-10-16T10:11:51;97134.50;;;23.42;50.30
10992;BME280;5549;47.028;15.514;2022-10-16T10:14:23;97130.78;;;23.43;49.01
10992;BME280;5549;47.028;15.514;2022-10-16T10:17:15;97134.66;;;23.61;50.26
10992;BME280;5549;47.028;15.514;2022-10-16T10:19:50;97143.44;;;23.83;49.19
10992;BME280;5549;47.028;15.514;2022-10-16T10:22:31;97140.22;;;23.94;48.60
10992;BME280;5549;47.028;15.514;2022-10-16T10:25:27;97141.34;;;24.20;49.70
10992;BME280;5549;47.028;15.514;2022-10-16T10:28:27;97142.13;;;24.42;51.17
10992;BME280;5549;47.028;15.514;2022-10-16T10:31:04;97139.22;;;24.43;47.16
10992;BME280;5549;47.028;15.514;2022-10-16T10:33:44;97141.09;;;24.49;46.72
10992;BME280;5549;47.028;15.514;2022-10-16T10:36:29;97129.31;;;24.37;46.69
10992;BME280;5549;47.028;15.514;2022-10-16T10:39:00;97137.13;;;24.32;45.91
10992;BME280;5549;47.028;15.514;2022-10-16T10:42:00;97132.22;;;24.49;48.91
10992;BME280;5549;47.028;15.514;2022-10-16T10:45:13;97130.03;;;24.85;47.20
10992;BME280;5549;47.028;15.514;2022-10-16T10:47:56;97124.50;;;25.20;47.05
10992;BME280;5549;47.028;15.514;2022-10-16T10:50:39;97121.81;;;25.26;45.17
10992;BME280;5549;47.028;15.514;2022-10-16T10:53:20;97114.34;;;25.15;45.55
10992;BME280;5549;47.028;15.514;2022-10-16T10:55:57;97124.91;;;25.04;44.46
10992;BME280;5549;47.028;15.514;2022-10-16T10:59:26;97119.31;;;25.05;44.73
10992;BME280;5549;47.028;15.514;2022-10-16T11:02:01;97122.78;;;24.73;44.48
10992;BME280;5549;47.028;15.514;2022-10-16T11:05:02;97124.44;;;24.87;44.69
10992;BME280;5549;47.028;15.514;2022-10-16T11:07:50;97125.28;;;24.87;46.19
10992;BME280;5549;47.028;15.514;2022-10-16T11:10:25;97120.16;;;25.25;46.50
10992;BME280;5549;47.028;15.514;2022-10-16T11:13:04;97123.66;;;25.33;43.66
10992;BME280;5549;47.028;15.514;2022-10-16T11:15:40;97118.69;;;25.16;44.25
10992;BME280;5549;47.028;15.514;2022-10-16T11:18:13;97120.56;;;25.29;44.94
10992;BME280;5549;47.028;15.514;2022-10-16T11:20:50;97115.78;;;25.38;44.25
10992;BME280;5549;47.028;15.514;2022-10-16T11:23:25;97105.84;;;25.58;45.72
10992;BME280;5549;47.028;15.514;2022-10-16T11:25:58;97100.44;;;25.71;43.83
10992;BME280;5549;47.028;15.514;2022-10-16T11:28:32;97108.28;;;25.86;44.80
10992;BME280;5549;47.028;15.514;2022-10-16T11:31:08;97102.50;;;25.76;42.44
10992;BME280;5549;47.028;15.514;2022-10-16T11:33:42;97104.19;;;25.44;44.13
10992;BME280;5549;47.028;15.514;2022-10-16T11:36:16;97121.59;;;25.08;44.95
10992;BME280;5549;47.028;15.514;2022-10-16T11:38:52;97112.03;;;24.92;44.15
10992;BME280;5549;47.028;15.514;2022-10-16T11:41:28;97110.44;;;24.98;44.39
10992;BME280;5549;47.028;15.514;2022-10-16T11:44:14;97109.78;;;24.96;44.06
10992;BME280;5549;47.028;15.514;2022-10-16T11:46:52;97110.44;;;25.24;46.65
10992;BME280;5549;47.028;15.514;2022-10-16T11:49:31;97112.88;;;25.46;44.61
10992;BME280;5549;47.028;15.514;2022-10-16T11:52:07;97109.53;;;25.64;45.22
10992;BME280;5549;47.028;15.514;2022-10-16T11:54:49;97107.31;;;25.27;43.28
10992;BME280;5549;47.028;15.514;2022-10-16T11:57:22;97106.91;;;25.17;45.41
10992;BME280;5549;47.028;15.514;2022-10-16T11:59:57;97105.06;;;25.24;44.39
10992;BME280;5549;47.028;15.514;2022-10-16T12:02:43;97101.53;;;25.37;45.01
10992;BME280;5549;47.028;15.514;2022-10-16T12:05:24;97107.94;;;25.23;44.20
10992;BME280;5549;47.028;15.514;2022-10-16T12:08:02;97107.94;;;25.10;43.05
10992;BME280;5549;47.028;15.514;2022-10-16T12:10:34;97114.97;;;25.04;43.40
10992;BME280;5549;47.028;15.514;2022-10-16T12:13:04;97115.34;;;24.88;43.00
10992;BME280;5549;47.028;15.514;2022-10-16T12:15:34;97118.81;;;24.55;43.77
10992;BME280;5549;47.028;15.514;2022-10-16T12:18:02;97114.00;;;24.31;44.03
10992;BME280;5549;47.028;15.514;2022-10-16T12:20:33;97112.38;;;24.37;44.08
10992;BME280;5549;47.028;15.514;2022-10-16T12:23:04;97110.75;;;24.55;43.20
10992;BME280;5549;47.028;15.514;2022-10-16T12:25:39;97108.09;;;24.69;43.16
10992;BME280;5549;47.028;15.514;2022-10-16T12:28:20;97104.97;;;24.58;41.27
10992;BME280;5549;47.028;15.514;2022-10-16T12:30:54;97115.09;;;24.56;40.87
10992;BME280;5549;47.028;15.514;2022-10-16T12:33:25;97110.75;;;24.49;41.06
10992;BME280;5549;47.028;15.514;2022-10-16T12:35:54;97114.41;;;24.35;42.31
10992;BME280;5549;47.028;15.514;2022-10-16T12:38:26;97112.34;;;24.30;42.35
10992;BME280;5549;47.028;15.514;2022-10-16T12:41:00;97111.44;;;24.23;42.82
10992;BME280;5549;47.028;15.514;2022-10-16T12:43:38;97118.09;;;24.27;41.90
10992;BME280;5549;47.028;15.514;2022-10-16T12:46:33;97118.16;;;23.99;41.70
10992;BME280;5549;47.028;15.514;2022-10-16T12:49:29;97125.00;;;24.08;42.81
10992;BME280;5549;47.028;15.514;2022-10-16T12:51:57;97121.72;;;24.13;42.37
10992;BME280;5549;47.028;15.514;2022-10-16T12:54:30;97124.56;;;24.05;42.82
10992;BME280;5549;47.028;15.514;2022-10-16T12:57:23;97121.19;;;23.89;42.33
10992;BME280;5549;47.028;15.514;2022-10-16T12:59:58;97123.50;;;23.99;41.91
10992;BME280;5549;47.028;15.514;2022-10-16T13:03:00;97121.88;;;24.05;42.39
10992;BME280;5549;47.028;15.514;2022-10-16T13:05:46;97124.16;;;24.08;42.93
10992;BME280;5549;47.028;15.514;2022-10-16T13:08:50;97124.81;;;24.10;43.83
10992;BME280;5549;47.028;15.514;2022-10-16T13:11:32;97136.13;;;24.05;44.19
10992;BME280;5549;47.028;15.514;2022-10-16T13:14:24;97139.47;;;24.14;44.83
10992;BME280;5549;47.028;15.514;2022-10-16T13:17:06;97143.28;;;23.91;44.65
10992;BME280;5549;47.028;15.514;2022-10-16T13:19:48;97139.91;;;23.76;43.11
10992;BME280;5549;47.028;15.514;2022-10-16T13:22:29;97134.25;;;23.64;43.44
10992;BME280;5549;47.028;15.514;2022-10-16T13:25:20;97134.78;;;23.81;44.24
10992;BME280;5549;47.028;15.514;2022-10-16T13:27:55;97146.34;;;23.82;44.53
10992;BME280;5549;47.028;15.514;2022-10-16T13:30:27;97147.13;;;23.76;43.26
10992;BME280;5549;47.028;15.514;2022-10-16T13:33:00;97151.19;;;23.65;43.99
10992;BME280;5549;47.028;15.514;2022-10-16T13:35:31;97145.66;;;23.45;44.22
10992;BME280;5549;47.028;15.514;2022-10-16T13:38:13;97157.16;;;23.39;45.37